Time;durP1;ratioP1;P1;durP2;ratioP2;P2;SDS_P1;SDS_P2;PMS_P1;PMS_P2;Temp;Humidity;BMP_temperature;BMP_pressure;BME280_temperature;BME280_humidity;BME280_pressure;Samples;Min_cycle;Max_cycle;Signal;HPM_P1;HPM_P2
2022/07/16 00:04:29;;;;;;;5.05;1.95;;;;;;;15.58;61.80;100871.44;5201608;55;1139074;-66
2022/07/16 00:09:35;;;;;;;9.37;1.30;;;;;;;15.54;61.86;100868.17;5077772;57;1139285;-67
2022/07/16 00:14:41;;;;;;;5.30;1.30;;;;;;;15.52;62.20;100868.80;5049977;58;1139113;-66
2022/07/16 00:19:47;;;;;;;5.17;1.60;;;;;;;15.51;62.62;100867.61;5084576;56;1139046;-66
2022/07/16 00:24:53;;;;;;;4.93;2.00;;;;;;;15.54;62.63;100867.33;5112357;57;1139254;-66
2022/07/16 00:29:59;;;;;;;9.33;2.50;;;;;;;15.53;62.62;100866.48;5083520;57;1138929;-66
2022/07/16 00:35:05;;;;;;;2.97;1.87;;;;;;;15.53;62.62;100863.83;5153167;56;1139028;-67
2022/07/16 00:40:11;;;;;;;10.83;2.40;;;;;;;15.54;62.68;100856.17;5215038;56;1139022;-66
2022/07/16 00:45:17;;;;;;;10.40;2.50;;;;;;;15.56;62.72;100854.73;5156055;56;1141132;-66
2022/07/16 00:50:23;;;;;;;7.43;1.90;;;;;;;15.61;62.77;100840.46;5065058;57;1141144;-66
2022/07/16 00:55:30;;;;;;;6.83;1.83;;;;;;;15.61;62.88;100837.30;5127596;56;1139076;-66
2022/07/16 01:00:36;;;;;;;3.20;1.67;;;;;;;15.62;62.85;100845.66;5179109;56;1139053;-66
2022/07/16 01:05:42;;;;;;;4.17;1.53;;;;;;;15.61;63.05;100835.97;5133434;57;1139276;-66
2022/07/16 01:10:48;;;;;;;6.30;1.93;;;;;;;15.58;63.39;100834.95;5131294;57;1139052;-66
2022/07/16 01:15:54;;;;;;;4.83;1.33;;;;;;;15.56;63.15;100833.41;5129189;57;1139014;-66
2022/07/16 01:21:01;;;;;;;6.60;1.80;;;;;;;15.56;63.18;100824.92;5133505;57;1139291;-66
2022/07/16 01:26:07;;;;;;;5.77;1.60;;;;;;;15.55;63.30;100831.23;5179365;56;1139051;-65
2022/07/16 01:31:14;;;;;;;9.40;1.67;;;;;;;15.58;63.49;100824.78;5219280;56;1139076;-66
2022/07/16 01:36:20;;;;;;;4.20;1.57;;;;;;;15.54;63.55;100820.68;5219100;56;1139004;-66
2022/07/16 01:41:26;;;;;;;2.37;1.40;;;;;;;15.56;63.82;100816.08;5219113;56;1139041;-66
2022/07/16 01:46:31;;;;;;;4.47;1.50;;;;;;;15.49;63.99;100814.44;5219031;56;1139282;-66
2022/07/16 01:51:37;;;;;;;1.97;1.40;;;;;;;15.47;64.25;100799.91;5218999;56;1139000;-66
2022/07/16 01:56:43;;;;;;;4.07;1.97;;;;;;;15.52;64.44;100807.48;5219033;56;1139082;-66
2022/07/16 02:01:49;;;;;;;4.33;1.30;;;;;;;15.52;64.50;100811.98;5218967;56;1137215;-66
2022/07/16 02:06:55;;;;;;;5.33;1.43;;;;;;;15.47;64.63;100803.91;5157179;56;1136979;-66
2022/07/16 02:12:01;;;;;;;4.00;1.50;;;;;;;15.44;64.81;100800.20;5146845;57;1136942;-66
2022/07/16 02:17:07;;;;;;;4.00;1.20;;;;;;;15.47;65.01;100793.74;5180432;56;1137031;-65
2022/07/16 02:22:15;;;;;;;3.60;1.47;;;;;;;15.48;65.12;100794.94;5189949;56;1136982;-66
2022/07/16 02:27:20;;;;;;;4.93;1.50;;;;;;;15.45;64.90;100793.04;5195045;57;1136956;-65
2022/07/16 02:32:28;;;;;;;4.80;1.43;;;;;;;15.43;65.11;100791.00;5195111;57;1137176;-66
2022/07/16 02:37:34;;;;;;;3.10;1.97;;;;;;;15.39;65.26;100785.14;5195203;56;1137232;-66
2022/07/16 02:42:40;;;;;;;4.30;1.43;;;;;;;15.41;65.32;100783.67;5197954;56;1136951;-66
2022/07/16 02:47:47;;;;;;;14.27;1.73;;;;;;;15.36;65.49;100785.42;5250536;55;1137068;-66
2022/07/16 02:52:53;;;;;;;4.30;1.37;;;;;;;15.27;65.40;100778.30;5208015;56;1138982;-66
2022/07/16 02:57:59;;;;;;;6.63;1.30;;;;;;;15.25;65.58;100776.76;5147417;56;1136921;-66
2022/07/16 03:03:05;;;;;;;5.73;1.47;;;;;;;15.20;65.71;100773.18;5142210;56;1136953;-66
2022/07/16 03:08:11;;;;;;;2.83;1.30;;;;;;;15.20;65.82;100781.17;5142219;56;1136986;-66
2022/07/16 03:13:16;;;;;;;8.23;1.27;;;;;;;15.17;66.03;100769.95;5144168;56;1136954;-66
2022/07/16 03:18:24;;;;;;;5.67;1.70;;;;;;;15.14;66.22;100767.91;5186782;56;1136951;-66
2022/07/16 03:23:30;;;;;;;9.80;1.60;;;;;;;15.13;66.18;100764.90;5219642;56;1136939;-66
2022/07/16 03:28:37;;;;;;;5.17;1.10;;;;;;;15.11;66.25;100765.56;5214907;56;1135113;-65
2022/07/16 03:33:43;;;;;;;8.00;1.70;;;;;;;15.09;66.38;100764.86;5219630;56;1135175;-67
2022/07/16 03:39:03;;;;;;;6.77;1.43;;;;;;;15.05;66.67;100762.61;5219758;56;1138959;-66
2022/07/16 03:44:12;;;;;;;3.80;1.00;;;;;;;15.02;66.86;100767.73;5219563;56;1139039;-66
2022/07/16 03:49:18;;;;;;;10.53;1.67;;;;;;;15.03;67.02;100760.58;5219542;56;1138962;-66
2022/07/16 03:54:23;;;;;;;2.87;1.23;;;;;;;15.03;67.10;100764.57;5208025;56;1141163;-66
2022/07/16 03:59:29;;;;;;;7.55;1.67;;;;;;;15.00;67.36;100760.85;5156042;56;1138997;-66
2022/07/16 04:04:35;;;;;;;5.77;1.07;;;;;;;14.95;67.26;100752.47;5165168;56;1138404;-65
2022/07/16 04:09:41;;;;;;;3.27;1.50;;;;;;;14.95;67.47;100757.30;5211511;56;1139042;-66
2022/07/16 04:14:47;;;;;;;12.63;1.47;;;;;;;14.90;67.98;100752.88;5155833;56;1139046;-66
2022/07/16 04:19:53;;;;;;;8.80;1.43;;;;;;;14.84;68.16;100748.11;5172796;56;1141138;-66
2022/07/16 04:24:59;;;;;;;2.47;1.23;;;;;;;14.83;68.58;100745.09;5219438;56;1139057;-66
2022/07/16 04:30:05;;;;;;;6.47;1.70;;;;;;;14.84;68.74;100752.59;5219463;56;1139205;-66
2022/07/16 04:35:14;;;;;;;8.63;1.57;;;;;;;14.83;69.04;100734.44;5156451;56;1139084;-66
2022/07/16 04:40:21;;;;;;;6.17;1.87;;;;;;;14.86;68.89;100734.16;5218179;56;1139042;-67
2022/07/16 04:45:26;;;;;;;6.27;2.77;;;;;;;14.86;69.19;100731.50;5161331;56;1139039;-66
2022/07/16 04:50:32;;;;;;;7.13;1.60;;;;;;;14.93;69.77;100731.30;5215815;56;1139042;-67
2022/07/16 04:55:38;;;;;;;11.57;2.27;;;;;;;15.02;69.68;100728.27;5189125;55;1139008;-66
2022/07/16 05:00:43;;;;;;;5.70;1.93;;;;;;;15.06;69.83;100720.34;5170762;56;1141002;-66
2022/07/16 05:05:49;;;;;;;8.80;1.77;;;;;;;15.10;69.97;100712.42;5167776;56;1139059;-66
2022/07/16 05:10:56;;;;;;;12.83;1.57;;;;;;;15.13;70.12;100704.95;5159841;56;1139088;-66
2022/07/16 05:16:02;;;;;;;14.30;2.50;;;;;;;15.19;70.06;100705.37;5196094;56;1141055;-66
2022/07/16 05:21:08;;;;;;;3.77;1.00;;;;;;;15.27;70.39;100702.36;5192526;55;1141037;-66
2022/07/16 05:26:14;;;;;;;15.83;1.50;;;;;;;15.40;70.19;100696.21;5228535;56;1138993;-67
2022/07/16 05:31:20;;;;;;;8.50;1.53;;;;;;;15.51;70.02;100692.52;5174704;55;1141165;-66
2022/07/16 05:36:26;;;;;;;6.73;2.00;;;;;;;15.69;69.67;100682.78;5183043;56;1139001;-66
2022/07/16 05:41:31;;;;;;;4.00;1.20;;;;;;;15.92;69.27;100672.54;5142407;56;1139068;-66
2022/07/16 05:46:37;;;;;;;6.00;1.47;;;;;;;16.10;69.58;100665.41;5163927;56;1139227;-67
2022/07/16 05:51:44;;;;;;;3.67;1.37;;;;;;;16.39;68.06;100659.01;5228277;55;1139049;-67
2022/07/16 05:56:50;;;;;;;4.00;0.80;;;;;;;16.57;66.52;100655.84;5228352;55;1138968;-67
2022/07/16 06:01:55;;;;;;;3.83;1.13;;;;;;;16.68;66.32;100652.11;5227969;56;1139040;-67
2022/07/16 06:07:01;;;;;;;3.10;1.07;;;;;;;16.80;66.16;100651.70;5188221;55;1139038;-66
2022/07/16 06:12:08;;;;;;;6.50;2.63;;;;;;;16.99;65.71;100651.16;5143343;56;1139040;-66
2022/07/16 06:17:13;;;;;;;4.70;1.40;;;;;;;17.12;63.63;100653.75;5203133;56;1139051;-66
2022/07/16 06:22:20;;;;;;;5.50;1.07;;;;;;;17.22;63.29;100641.14;5142350;56;1139089;-66
2022/07/16 06:27:27;;;;;;;12.07;1.37;;;;;;;17.33;62.46;100640.52;5142295;57;1139021;-67
2022/07/16 06:32:32;;;;;;;3.37;1.10;;;;;;;17.39;62.37;100637.20;5142130;56;1141045;-66
2022/07/16 06:37:38;;;;;;;4.03;1.03;;;;;;;17.43;62.05;100637.20;5142194;56;1139240;-67
2022/07/16 06:42:44;;;;;;;10.27;1.17;;;;;;;17.53;62.05;100629.91;5200755;55;1139043;-66
2022/07/16 06:47:50;;;;;;;4.87;1.03;;;;;;;17.68;62.02;100612.28;5225668;55;1139049;-66
2022/07/16 06:52:56;;;;;;;8.77;1.30;;;;;;;17.71;61.88;100607.11;5218431;56;1138882;-67
2022/07/16 06:58:02;;;;;;;5.80;1.30;;;;;;;17.66;61.50;100609.42;5191687;56;1136936;-67
2022/07/16 07:03:11;;;;;;;4.70;1.33;;;;;;;17.69;62.45;100590.39;5196121;55;1137237;-66
2022/07/16 07:08:15;;;;;;;1.63;1.13;;;;;;;17.88;62.38;100573.52;5228032;55;1136969;-66
2022/07/16 07:13:21;;;;;;;2.50;0.60;;;;;;;17.98;60.92;100584.59;5228041;55;1136969;-66
2022/07/16 07:18:28;;;;;;;11.37;0.80;;;;;;;18.00;60.93;100584.77;5181724;55;1136962;-67
2022/07/16 07:23:34;;;;;;;8.57;1.70;;;;;;;17.98;60.90;100567.19;5142200;56;1139027;-66
2022/07/16 07:28:40;;;;;;;3.67;1.43;;;;;;;17.86;61.14;100578.72;5154859;56;1136857;-66
2022/07/16 07:33:46;;;;;;;3.27;0.87;;;;;;;17.77;62.18;100566.31;5138860;57;1136967;-67
2022/07/16 07:38:51;;;;;;;7.90;0.80;;;;;;;17.78;62.76;100563.48;5180658;56;1136951;-67
2022/07/16 07:43:57;;;;;;;2.23;0.80;;;;;;;17.81;61.89;100557.80;5113981;56;1137248;-67
2022/07/16 07:49:03;;;;;;;1.90;0.63;;;;;;;17.73;63.20;100567.63;5151997;56;1136976;-71
2022/07/16 07:54:09;;;;;;;4.93;1.57;;;;;;;17.69;63.02;100553.78;5167877;57;1136949;-68
2022/07/16 07:59:15;;;;;;;3.53;1.00;;;;;;;17.70;63.03;100570.16;5066432;57;1137003;-71
2022/07/16 08:04:21;;;;;;;11.00;1.90;;;;;;;17.68;62.98;100567.31;5135773;57;1136992;-68
2022/07/16 08:09:26;;;;;;;2.43;1.00;;;;;;;17.58;65.08;100577.59;5113076;57;1139085;-69
2022/07/16 08:14:33;;;;;;;0.77;0.50;;;;;;;17.34;69.06;100584.71;5154096;57;1137012;-67
2022/07/16 08:19:40;;;;;;;1.87;0.80;;;;;;;16.71;72.80;100605.91;5122454;56;1134878;-66
2022/07/16 08:30:11;;;;;;;2.97;0.70;;;;;;;15.67;81.53;100608.77;5054689;57;1139132;-70
2022/07/16 08:35:17;;;;;;;2.40;0.73;;;;;;;15.39;84.48;100610.58;5097490;57;1139127;-69
2022/07/16 08:40:25;;;;;;;5.53;0.80;;;;;;;15.16;88.36;100599.93;5135144;56;1139090;-69
2022/07/16 08:45:32;;;;;;;5.50;1.17;;;;;;;15.00;90.90;100598.38;5167486;56;1139338;-67
2022/07/16 08:50:38;;;;;;;2.47;1.23;;;;;;;14.93;90.63;100598.14;5215140;56;1139164;-67
2022/07/16 08:55:44;;;;;;;2.43;1.83;;;;;;;14.89;91.82;100583.42;5204404;56;1139135;-68
2022/07/16 09:00:50;;;;;;;2.50;1.60;;;;;;;14.86;93.46;100575.72;5134709;56;1138436;-68
2022/07/16 09:05:55;;;;;;;5.83;1.10;;;;;;;14.75;92.08;100582.06;5145907;56;1139013;-67
2022/07/16 09:11:20;;;;;;;2.57;1.10;;;;;;;14.71;92.59;100579.34;5139155;56;1139006;-68
2022/07/16 09:16:31;;;;;;;4.93;1.20;;;;;;;14.63;95.92;100586.37;5157336;56;1139428;-68
2022/07/16 09:21:40;;;;;;;2.20;0.70;;;;;;;14.56;97.14;100583.44;5168358;57;1139055;-67
2022/07/16 09:26:46;;;;;;;1.32;0.70;;;;;;;14.48;100.00;100577.16;5155611;57;1139052;-67
2022/07/16 09:31:54;;;;;;;5.03;1.33;;;;;;;14.42;100.00;100592.70;5142176;57;1141059;-68
2022/07/16 09:37:07;;;;;;;1.83;0.90;;;;;;;14.30;100.00;100591.64;5112671;57;1141202;-67
2022/07/16 09:42:13;;;;;;;1.60;0.90;;;;;;;14.30;100.00;100579.66;5110370;58;1141082;-68
2022/07/16 09:47:22;;;;;;;2.03;1.40;;;;;;;14.16;100.00;100574.28;5131582;57;1140977;-68
2022/07/16 09:52:35;;;;;;;5.93;1.70;;;;;;;14.04;100.00;100590.88;5166443;57;1141709;-67
2022/07/16 09:57:44;;;;;;;1.50;0.90;;;;;;;13.97;100.00;100595.06;5110396;58;1141052;-67
2022/07/16 10:02:51;;;;;;;8.03;1.67;;;;;;;13.93;100.00;100592.31;4965851;58;1141237;-67
2022/07/16 10:07:56;;;;;;;5.23;1.50;;;;;;;13.96;100.00;100593.87;5135587;57;1141138;-67
2022/07/16 10:13:02;;;;;;;8.10;1.13;;;;;;;13.93;100.00;100586.16;5163148;56;1141134;-68
2022/07/16 10:18:32;;;;;;;1.90;1.33;;;;;;;13.95;100.00;100587.70;5141763;56;1141228;-67
2022/07/16 10:23:40;;;;;;;7.05;1.20;;;;;;;14.00;100.00;100590.80;5196289;55;1139364;-68
2022/07/16 10:28:58;;;;;;;1.63;1.30;;;;;;;14.07;100.00;100586.59;5228183;55;1139508;-68
2022/07/16 10:34:24;;;;;;;1.07;1.07;;;;;;;14.21;100.00;100584.48;5227856;55;1139049;-68
2022/07/16 10:39:30;;;;;;;2.00;1.80;;;;;;;14.28;100.00;100580.30;5153304;56;1139094;-67
2022/07/16 10:44:49;;;;;;;1.73;1.60;;;;;;;14.29;100.00;100585.97;5142122;56;1139018;-69
2022/07/16 10:50:25;;;;;;;2.02;1.50;;;;;;;14.40;100.00;100585.84;5067147;57;1139179;-67
2022/07/16 10:55:40;;;;;;;1.43;1.30;;;;;;;14.68;100.00;100569.45;5059075;57;1141064;-68
2022/07/16 11:00:45;;;;;;;2.17;2.07;;;;;;;14.86;100.00;100577.55;5058855;57;1141041;-70
2022/07/16 11:05:53;;;;;;;1.83;1.63;;;;;;;14.96;100.00;100584.53;5058743;57;1141107;-68
2022/07/16 11:10:59;;;;;;;2.37;1.40;;;;;;;15.12;100.00;100590.58;5094068;56;1141142;-67
2022/07/16 11:16:11;;;;;;;0.97;0.97;;;;;;;15.23;100.00;100601.04;5141775;56;1141128;-67
2022/07/16 11:21:17;;;;;;;0.70;0.50;;;;;;;15.21;100.00;100612.82;5158959;57;1141302;-67
2022/07/16 11:26:24;;;;;;;3.20;0.70;;;;;;;14.87;100.00;100611.17;5194793;57;1141400;-66
2022/07/16 11:31:35;;;;;;;1.07;0.70;;;;;;;14.61;100.00;100635.76;5193267;57;1141431;-68
2022/07/16 11:36:45;;;;;;;1.90;0.57;;;;;;;14.63;100.00;100639.61;5163221;57;1140954;-67
2022/07/16 11:41:55;;;;;;;1.15;0.60;;;;;;;14.64;100.00;100635.48;5193880;57;1141121;-67
2022/07/16 11:47:05;;;;;;;0.87;0.40;;;;;;;14.69;100.00;100621.72;5135356;57;1141134;-66
2022/07/16 11:52:22;;;;;;;2.53;0.63;;;;;;;14.93;100.00;100623.93;5195072;57;1141127;-67
2022/07/16 11:57:28;;;;;;;0.73;0.73;;;;;;;15.29;100.00;100608.91;5173352;57;1141148;-66
2022/07/16 12:02:39;;;;;;;0.40;0.40;;;;;;;15.66;100.00;100615.08;5046493;57;1141018;-66
2022/07/16 12:07:46;;;;;;;0.87;0.70;;;;;;;15.98;100.00;100615.09;5045902;58;1141124;-66
2022/07/16 12:13:04;;;;;;;2.20;0.70;;;;;;;16.30;100.00;100616.73;5179679;57;1141317;-67
2022/07/16 12:18:14;;;;;;;1.17;0.70;;;;;;;16.63;100.00;100616.55;5195039;57;1141167;-67
2022/07/16 12:23:40;;;;;;;1.03;0.60;;;;;;;16.94;100.00;100624.94;5194814;56;1141153;-67
2022/07/16 12:28:53;;;;;;;1.07;0.90;;;;;;;17.17;93.17;100621.22;5151471;56;1141092;-67
2022/07/16 12:34:03;;;;;;;3.23;0.70;;;;;;;17.40;90.75;100622.84;5153810;56;1137081;-68
2022/07/16 12:39:13;;;;;;;1.10;0.90;;;;;;;17.36;90.41;100626.33;5151263;56;1137168;-67
2022/07/16 12:44:21;;;;;;;2.17;1.90;;;;;;;17.03;86.79;100645.36;5187785;56;1137024;-67
2022/07/16 12:49:29;;;;;;;3.60;2.77;;;;;;;16.79;83.95;100651.39;5218385;56;1137033;-67
2022/07/16 12:59:58;;;;;;;2.20;0.97;;;;;;;16.77;75.46;100656.04;5151307;56;1136934;-67
2022/07/16 13:05:05;;;;;;;1.57;1.00;;;;;;;17.01;72.61;100658.03;5159194;56;1137279;-66
2022/07/16 13:10:11;;;;;;;3.27;0.73;;;;;;;17.32;72.99;100650.36;5175097;56;1137173;-65
2022/07/16 13:15:17;;;;;;;1.50;0.80;;;;;;;17.72;69.03;100640.89;5189331;56;1137062;-66
2022/07/16 13:20:23;;;;;;;0.60;0.60;;;;;;;17.99;71.23;100651.33;5192231;56;1136953;-66
2022/07/16 13:25:30;;;;;;;1.93;1.00;;;;;;;18.32;71.25;100650.89;5138207;57;1137217;-66
2022/07/16 13:30:36;;;;;;;2.77;1.00;;;;;;;18.65;72.73;100669.67;5134514;56;1137232;-65
2022/07/16 13:35:44;;;;;;;2.67;1.02;;;;;;;18.98;70.98;100664.13;5150365;56;1134983;-67
2022/07/16 13:40:51;;;;;;;1.40;1.07;;;;;;;19.37;68.97;100662.04;5234096;56;21635;-67
2022/07/16 13:45:57;;;;;;;2.38;1.20;;;;;;;19.56;70.20;100644.20;5207932;56;1134831;-67
2022/07/16 13:51:03;;;;;;;2.77;1.00;;;;;;;19.69;68.43;100697.34;5219004;56;1139049;-67
2022/07/16 13:56:09;;;;;;;1.77;1.00;;;;;;;19.01;69.71;100780.91;5201744;56;1138627;-66
2022/07/16 14:01:15;;;;;;;10.77;1.87;;;;;;;17.06;73.78;100809.40;5141000;56;1138984;-66
2022/07/16 14:06:21;;;;;;;2.10;0.90;;;;;;;16.23;79.28;100817.16;5215289;55;1140733;-67
2022/07/16 14:11:26;;;;;;;1.17;0.87;;;;;;;16.03;85.86;100799.08;5229914;55;1139246;-67
2022/07/16 14:16:32;;;;;;;1.03;0.90;;;;;;;16.12;87.87;100795.52;5229697;55;1139241;-67
2022/07/16 14:21:43;;;;;;;1.43;0.80;;;;;;;16.26;88.75;100791.51;5201426;55;1139014;-68
2022/07/16 14:26:46;;;;;;;4.17;0.90;;;;;;;16.65;87.94;100769.42;5161361;56;1139038;-67
2022/07/16 14:31:51;;;;;;;1.50;0.63;;;;;;;16.91;86.23;100768.67;5155640;56;1139035;-68
2022/07/16 14:36:57;;;;;;;1.17;0.43;;;;;;;17.15;83.52;100762.19;5186595;55;1139041;-67
2022/07/16 14:42:05;;;;;;;2.20;0.80;;;;;;;17.23;82.76;100771.12;5242287;55;1139229;-67
2022/07/16 14:47:10;;;;;;;4.23;0.53;;;;;;;17.32;80.87;100769.33;5181307;55;1139032;-68
2022/07/16 14:52:16;;;;;;;2.20;0.60;;;;;;;17.43;79.48;100766.39;5242185;55;1139068;-67
2022/07/16 14:57:22;;;;;;;8.13;1.83;;;;;;;17.39;80.64;100767.73;5237379;55;1139261;-68
2022/07/16 15:02:28;;;;;;;2.93;1.20;;;;;;;17.28;78.89;100781.82;5198715;55;1139016;-68
2022/07/16 15:07:35;;;;;;;0.53;0.53;;;;;;;17.13;79.71;100786.39;5194256;56;1139078;-67
2022/07/16 15:12:40;;;;;;;1.57;0.80;;;;;;;16.92;79.11;100785.89;5164249;56;1139173;-66
2022/07/16 15:17:46;;;;;;;1.63;0.50;;;;;;;16.97;80.04;100787.59;5193220;56;1139004;-66
2022/07/16 15:22:52;;;;;;;1.33;0.90;;;;;;;17.04;75.74;100796.69;5201347;55;1139027;-67
2022/07/16 15:27:57;;;;;;;0.87;0.70;;;;;;;17.05;75.23;100825.09;5156203;56;1139160;-66
2022/07/16 15:38:27;;;;;;;2.90;1.57;;;;;;;16.75;70.48;100818.29;5156031;56;1138999;-66
2022/07/16 15:43:33;;;;;;;4.77;0.97;;;;;;;16.93;73.07;100827.65;5178842;56;1139244;-68
2022/07/16 15:48:41;;;;;;;6.13;0.70;;;;;;;17.26;71.66;100819.92;5216486;56;1139028;-66
2022/07/16 15:53:47;;;;;;;1.37;0.60;;;;;;;17.46;71.03;100831.59;5219032;56;1139259;-67
2022/07/16 15:58:53;;;;;;;1.60;0.73;;;;;;;17.52;67.37;100832.83;5242026;55;1139042;-67
2022/07/16 16:03:59;;;;;;;3.10;1.00;;;;;;;17.31;68.14;100839.00;5240684;55;1139026;-67
2022/07/16 16:09:07;;;;;;;1.70;1.33;;;;;;;17.37;69.12;100845.08;5213240;56;1139092;-67
2022/07/16 16:14:12;;;;;;;5.13;1.17;;;;;;;17.61;69.36;100845.24;5184589;56;1139090;-67
2022/07/16 16:19:18;;;;;;;3.07;0.97;;;;;;;17.59;69.03;100846.73;5201296;56;1139127;-66
2022/07/16 16:24:24;;;;;;;4.97;1.20;;;;;;;17.53;69.77;100856.73;5171603;55;1139036;-66
2022/07/16 16:29:29;;;;;;;0.83;0.73;;;;;;;17.64;69.03;100862.36;5242683;55;1139159;-66
2022/07/16 16:34:35;;;;;;;3.37;1.50;;;;;;;17.61;69.33;100859.12;5242371;55;1139110;-67
2022/07/16 16:39:42;;;;;;;1.77;1.20;;;;;;;17.50;70.09;100874.92;5241056;55;1139003;-65
2022/07/16 16:44:48;;;;;;;2.57;1.20;;;;;;;17.39;70.37;100866.66;5217925;55;1137061;-66
2022/07/16 16:49:54;;;;;;;6.53;1.00;;;;;;;17.30;68.39;100887.61;5204687;56;1137053;-66
2022/07/16 16:55:00;;;;;;;5.03;0.90;;;;;;;17.24;70.34;100886.91;5214683;56;1137132;-67
2022/07/16 17:00:09;;;;;;;1.90;0.93;;;;;;;17.32;69.75;100881.63;5214710;56;1137002;-67
2022/07/16 17:05:16;;;;;;;5.60;1.00;;;;;;;17.38;68.77;100884.19;5214669;56;1137041;-66
2022/07/16 17:10:22;;;;;;;1.57;0.67;;;;;;;17.41;69.16;100886.56;5217032;56;1136905;-67
2022/07/16 17:15:28;;;;;;;3.40;0.77;;;;;;;17.36;69.13;100892.36;5219230;56;1136978;-67
2022/07/16 17:20:34;;;;;;;5.17;1.40;;;;;;;17.27;68.36;100890.59;5216854;56;1137131;-67
2022/07/16 17:25:40;;;;;;;1.80;1.10;;;;;;;17.20;69.44;100903.74;5203159;56;1137001;-66
2022/07/16 17:30:46;;;;;;;3.70;1.17;;;;;;;17.20;71.10;100901.56;5218969;56;1137002;-67
2022/07/16 17:35:52;;;;;;;3.70;1.30;;;;;;;17.11;71.13;100913.18;5218955;56;1136972;-67
2022/07/16 17:40:59;;;;;;;2.30;1.33;;;;;;;17.00;71.95;100921.39;5187866;56;1137194;-67
2022/07/16 17:46:06;;;;;;;2.97;1.63;;;;;;;16.86;73.05;100927.59;5170181;56;1136954;-66
2022/07/16 17:51:11;;;;;;;2.43;1.43;;;;;;;16.75;73.81;100934.97;5155954;56;1137214;-67
2022/07/16 17:56:17;;;;;;;3.47;1.20;;;;;;;16.65;74.39;100942.20;5235601;55;1137230;-67
2022/07/16 18:01:24;;;;;;;2.50;1.30;;;;;;;16.63;74.72;100945.52;5242062;55;1136995;-67
2022/07/16 18:06:30;;;;;;;6.60;1.63;;;;;;;16.66;74.40;100945.19;5242028;55;1136995;-67
2022/07/16 18:11:36;;;;;;;2.37;1.20;;;;;;;16.72;74.03;100956.14;5305964;55;1134828;-67
2022/07/16 18:16:42;;;;;;;6.00;1.40;;;;;;;16.75;73.49;100957.68;5281962;55;1134853;-67
2022/07/16 18:21:48;;;;;;;3.67;0.95;;;;;;;16.76;73.48;100966.88;5191633;55;1138982;-68
2022/07/16 18:26:55;;;;;;;9.73;1.70;;;;;;;16.73;73.64;100963.16;5239658;55;1138963;-67
2022/07/16 18:32:01;;;;;;;3.20;1.50;;;;;;;16.71;74.09;100977.16;5283082;56;1139006;-67
2022/07/16 18:37:06;;;;;;;12.80;5.07;;;;;;;16.63;74.56;100981.56;5282796;56;1139065;-67
2022/07/16 18:42:12;;;;;;;3.87;2.43;;;;;;;16.50;74.92;100987.17;5246636;56;1141077;-66
2022/07/16 18:47:17;;;;;;;3.17;1.63;;;;;;;16.40;75.34;100999.72;5109956;58;1139150;-67
2022/07/16 18:52:23;;;;;;;10.17;1.70;;;;;;;16.28;76.12;101008.89;5113505;57;1139034;-67
2022/07/16 18:57:29;;;;;;;4.50;2.10;;;;;;;16.17;76.75;101012.58;5105441;57;1141279;-67
2022/07/16 19:02:36;;;;;;;4.50;1.80;;;;;;;16.04;77.08;101023.52;5105561;58;1139055;-67
2022/07/16 19:07:41;;;;;;;3.00;1.30;;;;;;;15.92;77.82;101027.33;5105529;58;1139088;-66
2022/07/16 19:12:47;;;;;;;3.93;0.97;;;;;;;15.80;78.74;101034.63;5109681;57;1139082;-67
2022/07/16 19:17:53;;;;;;;1.87;1.10;;;;;;;15.70;79.18;101048.47;5142379;56;1138894;-67
2022/07/16 19:22:59;;;;;;;4.17;1.30;;;;;;;15.62;79.18;101048.79;5151515;57;1139059;-67
2022/07/16 19:28:05;;;;;;;10.70;1.57;;;;;;;15.62;80.22;101064.30;5117700;57;1139078;-66
2022/07/16 19:33:11;;;;;;;11.50;1.77;;;;;;;15.57;80.19;101064.38;5169995;56;1141388;-67
2022/07/16 19:38:16;;;;;;;1.47;1.00;;;;;;;15.46;80.82;101071.95;5218918;56;1141188;-67
2022/07/16 19:43:22;;;;;;;3.83;1.40;;;;;;;15.47;80.67;101081.15;5218587;56;1139249;-66
2022/07/16 19:48:28;;;;;;;3.85;1.25;;;;;;;15.40;81.02;101090.69;5266758;55;1139125;-66
2022/07/16 19:53:34;;;;;;;8.40;1.57;;;;;;;15.35;81.05;101089.40;5282649;55;1139040;-67
2022/07/16 19:58:40;;;;;;;4.17;1.10;;;;;;;15.29;81.36;101089.44;5242506;55;1138987;-66
2022/07/16 20:03:46;;;;;;;4.83;1.50;;;;;;;15.24;81.38;101095.69;5242481;55;1138950;-66
2022/07/16 20:08:53;;;;;;;6.93;1.47;;;;;;;15.16;81.50;101095.98;5209861;56;1139031;-67
2022/07/16 20:13:58;;;;;;;5.73;1.53;;;;;;;15.06;81.64;101094.14;5219239;56;1139079;-67
2022/07/16 20:19:07;;;;;;;3.40;1.60;;;;;;;15.01;82.26;101106.16;5218591;55;1139038;-67
2022/07/16 20:24:13;;;;;;;5.53;1.57;;;;;;;15.00;82.24;101114.64;5182931;56;1139341;-66
2022/07/16 20:29:19;;;;;;;11.33;3.43;;;;;;;14.93;82.39;101113.98;5129138;57;1139065;-66
2022/07/16 20:34:25;;;;;;;4.40;2.87;;;;;;;14.88;82.54;101111.70;5129158;57;1141165;-67
2022/07/16 20:39:31;;;;;;;5.87;1.15;;;;;;;14.88;82.68;101119.70;5123216;57;1139312;-67
2022/07/16 20:44:37;;;;;;;6.97;1.27;;;;;;;14.85;82.83;101123.11;5163360;56;1138988;-67
2022/07/16 20:49:43;;;;;;;3.23;1.33;;;;;;;14.84;83.11;101124.08;5199510;56;1139310;-67
2022/07/16 20:54:49;;;;;;;3.60;1.27;;;;;;;14.88;83.17;101141.49;5197770;56;1139055;-68
2022/07/16 20:59:55;;;;;;;4.67;1.30;;;;;;;14.88;83.17;101146.33;5185189;56;1139058;-67
2022/07/16 21:05:01;;;;;;;5.57;2.20;;;;;;;14.91;83.00;101150.55;5188379;56;1139191;-68
2022/07/16 21:10:07;;;;;;;4.27;1.30;;;;;;;14.93;82.85;101157.94;5191967;56;1139030;-68
2022/07/16 21:15:14;;;;;;;4.07;1.77;;;;;;;14.93;82.83;101173.42;5200369;56;1139033;-67
2022/07/16 21:20:19;;;;;;;6.10;1.77;;;;;;;14.90;83.72;101198.14;5189618;56;1139047;-66
2022/07/16 21:25:26;;;;;;;3.20;1.00;;;;;;;14.78;87.83;101193.37;5188516;56;1139041;-67
2022/07/16 21:30:32;;;;;;;3.80;1.37;;;;;;;14.62;89.23;101198.30;5184262;56;1139105;-67
2022/07/16 21:35:39;;;;;;;4.63;1.07;;;;;;;14.54;90.33;101200.73;5177058;57;1139037;-67
2022/07/16 21:40:45;;;;;;;2.37;1.03;;;;;;;14.49;92.66;101201.62;5177070;57;1138987;-67
2022/07/16 21:45:51;;;;;;;4.63;0.90;;;;;;;14.41;93.82;101211.56;5175760;56;1137155;-67
2022/07/16 21:50:57;;;;;;;5.53;1.00;;;;;;;14.34;94.36;101218.34;5195267;57;1136904;-67
2022/07/16 21:56:03;;;;;;;3.47;1.03;;;;;;;14.28;95.27;101218.83;5224271;55;1136965;-67
2022/07/16 22:01:08;;;;;;;2.93;0.97;;;;;;;14.25;95.28;101222.59;5224270;55;1137135;-67
2022/07/16 22:06:14;;;;;;;4.30;1.10;;;;;;;14.22;94.81;101229.48;5110138;58;1136939;-67
2022/07/16 22:11:20;;;;;;;3.40;0.93;;;;;;;14.20;94.96;101234.59;5110048;58;1137045;-66
2022/07/16 22:16:25;;;;;;;4.30;1.30;;;;;;;14.15;95.31;101235.44;5106783;58;1136984;-67
2022/07/16 22:21:31;;;;;;;4.37;0.80;;;;;;;14.11;95.02;101236.17;5116627;57;1136920;-67
2022/07/16 22:26:37;;;;;;;0.83;0.57;;;;;;;14.04;95.18;101246.48;4981564;58;1137037;-66
2022/07/16 22:31:43;;;;;;;4.33;1.00;;;;;;;14.04;95.72;101242.97;5091210;57;1137028;-67
2022/07/16 22:36:49;;;;;;;5.53;1.30;;;;;;;14.03;96.00;101247.44;5050180;58;1137019;-67
2022/07/16 22:41:55;;;;;;;8.30;1.30;;;;;;;14.03;95.84;101247.92;4979105;58;1137150;-67
2022/07/16 22:47:01;;;;;;;2.60;1.40;;;;;;;14.00;95.83;101256.14;5126080;57;1136982;-67
2022/07/16 22:52:06;;;;;;;4.40;1.00;;;;;;;13.97;95.87;101263.87;5141957;57;1137262;-67
2022/07/16 22:57:12;;;;;;;7.97;1.57;;;;;;;14.00;95.53;101266.30;5141788;57;1136931;-67
2022/07/16 23:02:18;;;;;;;4.00;0.90;;;;;;;13.99;95.27;101270.41;4980882;58;1137193;-66
2022/07/16 23:07:24;;;;;;;5.07;2.40;;;;;;;13.93;95.48;101264.23;5048933;57;1137011;-67
2022/07/16 23:12:29;;;;;;;4.93;1.30;;;;;;;13.85;94.90;101270.19;4963424;59;1137071;-67
2022/07/16 23:17:35;;;;;;;4.43;0.90;;;;;;;13.85;94.90;101275.98;4976642;58;1137099;-67
2022/07/16 23:22:41;;;;;;;3.40;1.60;;;;;;;13.79;95.04;101279.95;5086185;57;1135021;-67
2022/07/16 23:27:46;;;;;;;7.20;1.63;;;;;;;13.78;95.14;101290.23;5128642;57;1134955;-67